Time;durP1;ratioP1;P1;durP2;ratioP2;P2;SDS_P1;SDS_P2;PMS_P1;PMS_P2;Temp;Humidity;BMP_temperature;BMP_pressure;BME280_temperature;BME280_humidity;BME280_pressure;Samples;Min_cycle;Max_cycle;Signal;HPM_P1;HPM_P2
2023/02/10 00:02:13;;;;;;;;;;;;;;;7.13;nan;103097.56;4988403;28;19921;-83
2023/02/10 00:04:38;;;;;;;;;;;;;;;7.18;nan;103105.91;4982634;28;19957;-83
2023/02/10 00:07:04;;;;;;;;;;;;;;;7.22;nan;103111.72;4986871;28;19918;-83
2023/02/10 00:09:29;;;;;;;;;;;;;;;7.27;nan;103102.22;4990117;28;19947;-85
2023/02/10 00:11:59;;;;;;;;;;;;;;;7.29;nan;103107.38;4988337;28;20545;-84
2023/02/10 00:14:24;;;;;;;;;;;;;;;7.30;nan;103111.72;4989031;28;19929;-84
2023/02/10 00:16:51;;;;;;;;;;;;;;;7.32;nan;103112.38;4988132;28;20343;-84
2023/02/10 00:19:16;;;;;;;;;;;;;;;7.31;nan;103104.53;4986342;28;19952;-84
2023/02/10 00:21:41;;;;;;;;;;;;;;;7.28;nan;103109.22;4990510;28;19925;-84
2023/02/10 00:24:07;;;;;;;;;;;;;;;7.34;nan;103109.53;4988402;28;20193;-84
2023/02/10 00:26:32;;;;;;;;;;;;;;;7.33;nan;103108.69;4990758;28;20399;-84
2023/02/10 00:28:58;;;;;;;;;;;;;;;7.36;nan;103107.53;4985671;28;20219;-83
2023/02/10 00:31:23;;;;;;;;;;;;;;;7.37;nan;103103.88;4991196;28;19922;-83
2023/02/10 00:33:48;;;;;;;;;;;;;;;7.38;nan;103114.38;4992750;28;19929;-84
2023/02/10 00:36:15;;;;;;;;;;;;;;;7.36;nan;103113.72;4990987;28;19961;-84
2023/02/10 00:38:41;;;;;;;;;;;;;;;7.37;nan;103114.56;4990524;28;20362;-84
2023/02/10 00:41:08;;;;;;;;;;;;;;;7.36;nan;103119.06;4990192;28;19922;-83
2023/02/10 00:43:33;;;;;;;;;;;;;;;7.40;nan;103125.72;4992227;28;20135;-83
2023/02/10 00:45:59;;;;;;;;;;;;;;;7.43;nan;103122.69;4991852;28;19917;-83
2023/02/10 00:48:24;;;;;;;;;;;;;;;7.47;nan;103133.84;4989506;28;19937;-84
2023/02/10 00:50:49;;;;;;;;;;;;;;;7.41;nan;103131.88;4990242;28;20387;-83
2023/02/10 00:53:15;;;;;;;;;;;;;;;7.38;nan;103130.38;4990888;28;19968;-83
2023/02/10 00:55:40;;;;;;;;;;;;;;;7.40;nan;103133.72;4991055;28;19924;-83
2023/02/10 00:58:05;;;;;;;;;;;;;;;7.45;nan;103131.34;4992674;28;21086;-84
2023/02/10 01:00:31;;;;;;;;;;;;;;;7.45;nan;103143.88;4987638;28;20279;-84
2023/02/10 01:02:56;;;;;;;;;;;;;;;7.37;nan;103136.72;4983562;28;20330;-85
2023/02/10 01:05:21;;;;;;;;;;;;;;;7.35;nan;103145.88;4986876;28;20809;-84
2023/02/10 01:07:47;;;;;;;;;;;;;;;7.32;nan;103139.03;4989183;28;19924;-83
2023/02/10 01:10:15;;;;;;;;;;;;;;;7.33;nan;103142.53;4986016;28;19936;-84
2023/02/10 01:12:40;;;;;;;;;;;;;;;7.37;nan;103146.56;4987829;28;19976;-85
2023/02/10 01:15:06;;;;;;;;;;;;;;;7.26;nan;103134.38;4993380;28;20283;-84
2023/02/10 01:17:31;;;;;;;;;;;;;;;7.24;nan;103125.72;4990074;28;20061;-83
2023/02/10 01:19:57;;;;;;;;;;;;;;;7.22;nan;103133.06;4989485;28;19918;-84
2023/02/10 01:22:22;;;;;;;;;;;;;;;7.28;nan;103141.22;4991013;28;19944;-85
2023/02/10 01:24:47;;;;;;;;;;;;;;;7.20;nan;103135.06;4990744;28;20269;-84
2023/02/10 01:27:13;;;;;;;;;;;;;;;7.25;nan;103132.72;4979000;28;19922;-84
2023/02/10 01:29:38;;;;;;;;;;;;;;;7.19;nan;103133.41;4989434;28;19972;-83
2023/02/10 01:32:03;;;;;;;;;;;;;;;7.13;nan;103132.22;4990867;28;19929;-84
2023/02/10 01:34:29;;;;;;;;;;;;;;;7.19;nan;103130.72;4990943;28;19922;-85
2023/02/10 01:36:54;;;;;;;;;;;;;;;7.14;nan;103128.53;4990308;28;19984;-84
2023/02/10 01:39:20;;;;;;;;;;;;;;;7.14;nan;103130.38;4990456;28;19925;-84
2023/02/10 01:41:45;;;;;;;;;;;;;;;7.20;nan;103127.06;4989881;28;20363;-83
2023/02/10 01:44:19;;;;;;;;;;;;;;;7.23;nan;103134.72;4990556;28;19918;-84
2023/02/10 01:46:45;;;;;;;;;;;;;;;7.27;nan;103133.38;4990164;28;19925;-83
2023/02/10 01:49:14;;;;;;;;;;;;;;;7.29;nan;103136.72;4988709;28;19918;-82
2023/02/10 01:51:44;;;;;;;;;;;;;;;7.26;nan;103131.72;4990775;28;19918;-83
2023/02/10 01:54:13;;;;;;;;;;;;;;;7.30;nan;103130.38;4991808;28;19929;-84
2023/02/10 01:56:40;;;;;;;;;;;;;;;7.31;nan;103124.03;4990841;28;19918;-84
2023/02/10 01:59:06;;;;;;;;;;;;;;;7.32;nan;103123.03;4992744;28;19925;-84
2023/02/10 02:01:31;;;;;;;;;;;;;;;7.38;nan;103122.38;4993060;28;20004;-83
2023/02/10 02:03:57;;;;;;;;;;;;;;;7.42;nan;103129.03;4989673;28;19922;-84
2023/02/10 02:06:22;;;;;;;;;;;;;;;7.42;nan;103126.38;4990744;28;19918;-84
2023/02/10 02:08:48;;;;;;;;;;;;;;;7.46;nan;103127.69;4989766;28;19975;-84
2023/02/10 02:11:22;;;;;;;;;;;;;;;7.47;nan;103125.84;4987672;28;19933;-83
2023/02/10 02:13:57;;;;;;;;;;;;;;;7.53;nan;103131.34;4992006;28;19987;-84
2023/02/10 02:16:25;;;;;;;;;;;;;;;7.57;nan;103122.00;4992626;28;19926;-85
2023/02/10 02:19:13;;;;;;;;;;;;;;;7.62;nan;103118.81;4991697;28;19918;-85
2023/02/10 02:21:51;;;;;;;;;;;;;;;7.66;nan;103120.13;4989957;28;19917;-84
2023/02/10 02:24:35;;;;;;;;;;;;;;;7.66;nan;103116.63;4991288;28;19933;-84
2023/02/10 02:27:26;;;;;;;;;;;;;;;7.68;nan;103118.13;4990490;28;19917;-83
2023/02/10 02:30:14;;;;;;;;;;;;;;;7.77;nan;103121.63;4958322;28;19922;-84
2023/02/10 02:32:48;;;;;;;;;;;;;;;7.77;nan;103116.28;4976354;28;20025;-84
2023/02/10 02:35:19;;;;;;;;;;;;;;;7.79;nan;103111.59;4993679;28;19924;-84
2023/02/10 02:37:46;;;;;;;;;;;;;;;7.84;nan;103102.06;4993706;28;20021;-85
2023/02/10 02:40:14;;;;;;;;;;;;;;;7.83;nan;103105.75;4994184;28;19924;-83
2023/02/10 02:42:39;;;;;;;;;;;;;;;7.79;nan;103108.94;4994728;28;19918;-84
2023/02/10 02:45:10;;;;;;;;;;;;;;;7.72;nan;103107.94;4994836;28;20417;-83
2023/02/10 02:47:54;;;;;;;;;;;;;;;7.71;nan;103103.59;4988736;28;20403;-84
2023/02/10 02:50:25;;;;;;;;;;;;;;;7.72;nan;103105.28;4994594;28;19921;-83
2023/02/10 02:53:09;;;;;;;;;;;;;;;7.74;nan;103092.63;4994601;28;19925;-85
2023/02/10 02:55:40;;;;;;;;;;;;;;;7.78;nan;103101.94;4992934;28;19918;-84
2023/02/10 02:58:14;;;;;;;;;;;;;;;7.75;nan;103099.63;4987705;28;19980;-83
2023/02/10 03:00:41;;;;;;;;;;;;;;;7.75;nan;103091.63;4993079;28;20001;-83
2023/02/10 03:03:08;;;;;;;;;;;;;;;7.73;nan;103090.97;4992363;28;19925;-84
2023/02/10 03:05:34;;;;;;;;;;;;;;;7.75;nan;103102.28;4991142;28;19945;-84
2023/02/10 03:08:00;;;;;;;;;;;;;;;7.78;nan;103096.59;4993130;28;20122;-84
2023/02/10 03:10:25;;;;;;;;;;;;;;;7.78;nan;103089.44;4995174;28;19918;-84
2023/02/10 03:12:51;;;;;;;;;;;;;;;7.76;nan;103093.28;4995246;28;19922;-82
2023/02/10 03:15:16;;;;;;;;;;;;;;;7.75;nan;103094.28;4991977;28;19925;-84
2023/02/10 03:17:42;;;;;;;;;;;;;;;7.74;nan;103089.94;4992563;28;19952;-83
2023/02/10 03:20:08;;;;;;;;;;;;;;;7.73;nan;103088.28;4992799;28;20025;-84
2023/02/10 03:22:33;;;;;;;;;;;;;;;7.72;nan;103091.94;4993478;28;19950;-83
2023/02/10 03:24:58;;;;;;;;;;;;;;;7.67;nan;103091.63;4991521;28;20002;-82
2023/02/10 03:27:24;;;;;;;;;;;;;;;7.65;nan;103085.63;4991452;28;19918;-83
2023/02/10 03:29:51;;;;;;;;;;;;;;;7.63;nan;103092.97;5010216;23;19930;-84
2023/02/10 03:32:17;;;;;;;;;;;;;;;7.60;nan;103099.50;4982818;28;19930;-85
2023/02/10 03:34:42;;;;;;;;;;;;;;;7.54;nan;103095.69;4984369;28;19937;-85
2023/02/10 03:37:08;;;;;;;;;;;;;;;7.52;nan;103089.66;4982878;28;19933;-85
2023/02/10 03:39:33;;;;;;;;;;;;;;;7.48;nan;103095.50;4991175;28;19944;-85
2023/02/10 03:41:59;;;;;;;;;;;;;;;7.43;nan;103096.03;5000494;28;20004;-85
2023/02/10 03:44:24;;;;;;;;;;;;;;;7.37;nan;103104.72;5003858;28;19918;-85
2023/02/10 03:46:50;;;;;;;;;;;;;;;7.39;nan;103112.53;5003205;28;19956;-84
2023/02/10 03:49:15;;;;;;;;;;;;;;;7.36;nan;103118.19;4998555;28;19925;-85
2023/02/10 03:51:40;;;;;;;;;;;;;;;7.33;nan;103119.38;5002190;28;20414;-84
2023/02/10 03:54:06;;;;;;;;;;;;;;;7.29;nan;103115.38;5003064;28;20375;-84
2023/02/10 03:56:31;;;;;;;;;;;;;;;7.27;nan;103112.06;5003126;28;20056;-84
2023/02/10 03:58:59;;;;;;;;;;;;;;;7.28;nan;103105.72;5000653;28;19945;-85
2023/02/10 04:01:25;;;;;;;;;;;;;;;7.23;nan;103113.38;5001393;28;19917;-84
2023/02/10 04:03:50;;;;;;;;;;;;;;;7.18;nan;103119.25;5003496;28;19944;-85
2023/02/10 04:06:15;;;;;;;;;;;;;;;7.16;nan;103115.03;5001967;28;19932;-85
2023/02/10 04:08:41;;;;;;;;;;;;;;;7.11;nan;103118.22;4998977;28;20409;-84
2023/02/10 04:11:09;;;;;;;;;;;;;;;7.07;nan;103114.22;5001139;28;20345;-84
2023/02/10 04:13:34;;;;;;;;;;;;;;;7.03;nan;103125.41;4999254;28;20867;-85
2023/02/10 04:16:03;;;;;;;;;;;;;;;7.00;nan;103139.88;5002725;28;19932;-84
2023/02/10 04:18:28;;;;;;;;;;;;;;;7.00;nan;103141.69;5000122;28;20385;-84
2023/02/10 04:20:54;;;;;;;;;;;;;;;6.95;nan;103147.53;5000442;28;19925;-84
2023/02/10 04:23:19;;;;;;;;;;;;;;;6.94;nan;103148.53;4998519;28;20059;-84
2023/02/10 04:25:44;;;;;;;;;;;;;;;6.94;nan;103145.88;4999104;28;19917;-84
2023/02/10 04:28:10;;;;;;;;;;;;;;;6.94;nan;103152.03;4996372;28;19918;-84
2023/02/10 04:30:35;;;;;;;;;;;;;;;6.96;nan;103152.69;5003041;28;19918;-84
2023/02/10 04:33:01;;;;;;;;;;;;;;;6.97;nan;103146.38;4998999;28;20359;-84
2023/02/10 04:35:26;;;;;;;;;;;;;;;7.00;nan;103152.34;5001488;28;20390;-85
2023/02/10 04:37:51;;;;;;;;;;;;;;;7.04;nan;103151.06;4998308;28;20418;-85
2023/02/10 04:40:17;;;;;;;;;;;;;;;6.99;nan;103154.19;4998398;28;19925;-85
2023/02/10 04:42:42;;;;;;;;;;;;;;;6.97;nan;103154.38;5001582;28;19917;-83
2023/02/10 04:45:07;;;;;;;;;;;;;;;7.04;nan;103149.22;4998753;28;20373;-85
2023/02/10 04:47:33;;;;;;;;;;;;;;;7.04;nan;103151.06;4999170;28;19921;-84
2023/02/10 04:49:58;;;;;;;;;;;;;;;7.09;nan;103143.38;4999494;28;19960;-85
2023/02/10 04:52:24;;;;;;;;;;;;;;;7.07;nan;103162.22;5003755;28;19924;-85
2023/02/10 04:54:49;;;;;;;;;;;;;;;7.07;nan;103150.72;5000806;28;19971;-84
2023/02/10 04:57:14;;;;;;;;;;;;;;;7.07;nan;103161.38;5002315;28;19963;-84
2023/02/10 04:59:39;;;;;;;;;;;;;;;7.04;nan;103153.72;4999821;28;19924;-84
2023/02/10 05:02:05;;;;;;;;;;;;;;;7.03;nan;103155.56;4999706;28;20472;-84
2023/02/10 05:04:30;;;;;;;;;;;;;;;7.06;nan;103157.88;5005519;28;20357;-85
2023/02/10 05:06:59;;;;;;;;;;;;;;;7.03;nan;103160.88;4999344;28;19921;-83
2023/02/10 05:09:26;;;;;;;;;;;;;;;7.01;nan;103162.88;5003097;28;19965;-83
2023/02/10 05:11:52;;;;;;;;;;;;;;;7.04;nan;103162.56;5000181;28;20001;-85
2023/02/10 05:14:17;;;;;;;;;;;;;;;7.03;nan;103171.56;5003011;28;20020;-84
2023/02/10 05:16:43;;;;;;;;;;;;;;;7.04;nan;103180.38;4983900;28;19926;-86
2023/02/10 05:19:09;;;;;;;;;;;;;;;7.06;nan;103184.53;5002934;28;19917;-84
2023/02/10 05:21:34;;;;;;;;;;;;;;;7.11;nan;103179.53;5003079;28;19953;-86
2023/02/10 05:24:00;;;;;;;;;;;;;;;7.16;nan;103179.03;5001544;28;20869;-86
2023/02/10 05:26:25;;;;;;;;;;;;;;;7.19;nan;103176.88;5002936;28;19921;-85
2023/02/10 05:28:50;;;;;;;;;;;;;;;7.21;nan;103184.72;5000324;28;19925;-85
2023/02/10 05:31:16;;;;;;;;;;;;;;;7.29;nan;103190.03;5001978;28;21302;-85
2023/02/10 05:33:41;;;;;;;;;;;;;;;7.31;nan;103196.03;4998701;28;20017;-85
2023/02/10 05:36:07;;;;;;;;;;;;;;;7.33;nan;103198.53;4983431;28;19960;-85
2023/02/10 05:38:32;;;;;;;;;;;;;;;7.39;nan;103204.06;4999395;28;19940;-85
2023/02/10 05:40:57;;;;;;;;;;;;;;;7.39;nan;103208.56;4999779;28;19930;-84
2023/02/10 05:43:23;;;;;;;;;;;;;;;7.42;nan;103209.06;4998358;28;20016;-87
2023/02/10 05:45:48;;;;;;;;;;;;;;;7.44;nan;103204.38;4998678;28;19956;-85
2023/02/10 05:48:13;;;;;;;;;;;;;;;7.51;nan;103208.03;5000610;28;19917;-84
2023/02/10 05:50:39;;;;;;;;;;;;;;;7.56;nan;103211.06;5001744;28;20417;-85
2023/02/10 05:53:05;;;;;;;;;;;;;;;7.59;nan;103209.88;5001759;28;20007;-85
2023/02/10 05:55:31;;;;;;;;;;;;;;;7.62;nan;103214.03;5003440;28;19926;-88
2023/02/10 05:57:56;;;;;;;;;;;;;;;7.60;nan;103216.06;5004693;28;19928;-85
2023/02/10 06:00:21;;;;;;;;;;;;;;;7.60;nan;103216.88;5006527;28;19918;-85
2023/02/10 06:02:47;;;;;;;;;;;;;;;7.65;nan;103213.69;5004987;28;19925;-85
2023/02/10 06:05:13;;;;;;;;;;;;;;;7.68;nan;103216.84;5005009;28;19931;-85
2023/02/10 06:07:38;;;;;;;;;;;;;;;7.65;nan;103221.72;5003012;28;20016;-85
2023/02/10 06:10:04;;;;;;;;;;;;;;;7.63;nan;103231.72;5008684;28;19944;-84
2023/02/10 06:12:29;;;;;;;;;;;;;;;7.65;nan;103227.03;5003266;28;20487;-84
2023/02/10 06:14:54;;;;;;;;;;;;;;;7.66;nan;103218.03;5003747;28;19953;-86
2023/02/10 06:17:20;;;;;;;;;;;;;;;7.68;nan;103238.22;5009543;28;20387;-84
2023/02/10 06:19:45;;;;;;;;;;;;;;;7.69;nan;103225.69;5009102;28;19995;-85
2023/02/10 06:22:11;;;;;;;;;;;;;;;7.65;nan;103224.38;5002625;28;19968;-84
2023/02/10 06:24:36;;;;;;;;;;;;;;;7.65;nan;103233.22;5001154;28;20108;-85
2023/02/10 06:27:01;;;;;;;;;;;;;;;7.71;nan;103234.38;5003233;28;19960;-84
2023/02/10 06:29:27;;;;;;;;;;;;;;;7.71;nan;103234.38;5000319;28;20387;-85
2023/02/10 06:31:52;;;;;;;;;;;;;;;7.71;nan;103247.72;5002776;28;20128;-84
2023/02/10 06:34:17;;;;;;;;;;;;;;;7.70;nan;103248.72;5000720;28;19921;-86
2023/02/10 06:36:43;;;;;;;;;;;;;;;7.71;nan;103250.38;5000371;28;19969;-86
2023/02/10 06:39:08;;;;;;;;;;;;;;;7.74;nan;103256.22;5001457;28;20500;-84
2023/02/10 06:41:34;;;;;;;;;;;;;;;7.80;nan;103246.72;5002648;28;19930;-88
2023/02/10 06:43:59;;;;;;;;;;;;;;;7.79;nan;103250.38;5004772;28;19925;-84
2023/02/10 06:46:25;;;;;;;;;;;;;;;7.82;nan;103247.38;5001920;28;20406;-84
2023/02/10 06:48:50;;;;;;;;;;;;;;;7.78;nan;103246.06;5003429;28;19932;-85
2023/02/10 06:51:16;;;;;;;;;;;;;;;7.82;nan;103231.34;5005803;28;20296;-87
2023/02/10 06:53:42;;;;;;;;;;;;;;;7.80;nan;103233.38;5001896;28;19921;-85
2023/02/10 06:56:07;;;;;;;;;;;;;;;7.83;nan;103239.19;5006398;28;19921;-84
2023/02/10 06:58:33;;;;;;;;;;;;;;;7.83;nan;103230.34;5004980;28;19948;-85
2023/02/10 07:01:00;;;;;;;;;;;;;;;7.81;nan;103224.34;4990845;28;20014;-84
2023/02/10 07:03:26;;;;;;;;;;;;;;;7.72;nan;103222.69;5003763;28;19924;-84
2023/02/10 07:05:51;;;;;;;;;;;;;;;7.68;nan;103216.84;5014071;28;19917;-84
2023/02/10 07:08:17;;;;;;;;;;;;;;;7.68;nan;103229.38;5000300;28;19925;-84
2023/02/10 07:10:42;;;;;;;;;;;;;;;7.65;nan;103235.03;4998266;28;19917;-84
2023/02/10 07:13:08;;;;;;;;;;;;;;;7.60;nan;103242.72;5005842;28;20404;-86
2023/02/10 07:15:33;;;;;;;;;;;;;;;7.61;nan;103247.06;5000420;28;19921;-85
2023/02/10 07:17:59;;;;;;;;;;;;;;;7.55;nan;103246.75;5003755;28;20327;-85
2023/02/10 07:20:24;;;;;;;;;;;;;;;7.58;nan;103257.06;5002181;28;19917;-84
2023/02/10 07:22:51;;;;;;;;;;;;;;;7.66;nan;103258.06;5002397;28;19928;-85
2023/02/10 07:25:16;;;;;;;;;;;;;;;7.76;nan;103269.41;5005029;28;21287;-85
2023/02/10 07:27:43;;;;;;;;;;;;;;;7.73;nan;103259.06;5005144;28;19917;-85
2023/02/10 07:30:09;;;;;;;;;;;;;;;7.77;nan;103255.91;5001429;28;19917;-85
2023/02/10 07:32:34;;;;;;;;;;;;;;;7.77;nan;103258.56;5001564;28;20277;-85
2023/02/10 07:35:00;;;;;;;;;;;;;;;7.80;nan;103260.06;5001509;28;20390;-86
2023/02/10 07:37:26;;;;;;;;;;;;;;;7.80;nan;103246.72;5002462;28;19924;-85
2023/02/10 07:39:51;;;;;;;;;;;;;;;7.81;nan;103253.72;4996235;28;20272;-85
2023/02/10 07:42:17;;;;;;;;;;;;;;;7.79;nan;103255.72;4999807;28;19947;-85
2023/02/10 07:44:42;;;;;;;;;;;;;;;7.79;nan;103256.56;4997319;28;19918;-85
2023/02/10 07:47:09;;;;;;;;;;;;;;;7.86;nan;103259.38;5006953;28;19999;-85
2023/02/10 07:49:35;;;;;;;;;;;;;;;7.79;nan;103275.25;5001954;28;19930;-86
2023/02/10 07:52:00;;;;;;;;;;;;;;;7.78;nan;103273.56;4999898;28;20397;-84
2023/02/10 07:54:25;;;;;;;;;;;;;;;7.76;nan;103269.41;5005633;28;20353;-85
2023/02/10 07:56:51;;;;;;;;;;;;;;;7.75;nan;103273.09;5001995;28;20378;-86
2023/02/10 07:59:16;;;;;;;;;;;;;;;7.77;nan;103289.75;5004128;28;19918;-84
2023/02/10 08:01:42;;;;;;;;;;;;;;;7.76;nan;103286.25;4996772;28;20513;-84
2023/02/10 08:04:12;;;;;;;;;;;;;;;7.78;nan;103288.75;5003524;28;19931;-85
2023/02/10 08:06:37;;;;;;;;;;;;;;;7.84;nan;103299.59;5002256;28;19929;-86
2023/02/10 08:09:03;;;;;;;;;;;;;;;7.91;nan;103291.75;4985642;28;20448;-85
2023/02/10 08:11:28;;;;;;;;;;;;;;;7.93;nan;103300.44;5003357;28;20004;-87
2023/02/10 08:13:53;;;;;;;;;;;;;;;8.01;nan;103295.06;4999183;28;19961;-85
2023/02/10 08:16:19;;;;;;;;;;;;;;;8.05;nan;103284.88;4999900;28;19930;-85
2023/02/10 08:18:44;;;;;;;;;;;;;;;8.10;nan;103287.91;5003147;28;19925;-86
2023/02/10 08:21:09;;;;;;;;;;;;;;;8.26;nan;103292.34;5005321;28;19924;-85
2023/02/10 08:23:35;;;;;;;;;;;;;;;8.35;nan;103284.19;5003769;28;19971;-87
2023/02/10 08:26:07;;;;;;;;;;;;;;;8.36;nan;103293.84;5004436;28;19922;-85
2023/02/10 08:28:34;;;;;;;;;;;;;;;8.49;nan;103293.34;5005590;28;19926;-85
2023/02/10 08:31:00;;;;;;;;;;;;;;;8.53;nan;103294.66;5003623;28;19929;-87
2023/02/10 08:33:25;;;;;;;;;;;;;;;8.67;nan;103293.09;5003509;28;20410;-86
2023/02/10 08:35:50;;;;;;;;;;;;;;;8.63;nan;103287.28;4999109;28;19956;-84
2023/02/10 08:38:16;;;;;;;;;;;;;;;8.68;nan;103287.56;5002893;28;19932;-84
2023/02/10 08:40:41;;;;;;;;;;;;;;;8.76;nan;103295.56;5000231;28;20398;-85
2023/02/10 08:43:06;;;;;;;;;;;;;;;8.82;nan;103296.72;5000977;28;20330;-85
2023/02/10 08:45:32;;;;;;;;;;;;;;;8.85;nan;103296.34;4992842;28;19940;-86
2023/02/10 08:47:57;;;;;;;;;;;;;;;8.87;nan;103296.19;4999211;28;19921;-87
2023/02/10 08:50:22;;;;;;;;;;;;;;;8.97;nan;103297.63;4997498;28;20219;-85
2023/02/10 08:52:48;;;;;;;;;;;;;;;9.01;nan;103303.47;4999019;28;19926;-85
2023/02/10 08:55:13;;;;;;;;;;;;;;;9.06;nan;103301.94;5001202;28;20314;-87
2023/02/10 08:57:39;;;;;;;;;;;;;;;9.17;nan;103298.03;5001092;28;20060;-85
2023/02/10 09:00:06;;;;;;;;;;;;;;;9.32;nan;103298.91;4997972;28;20008;-85
2023/02/10 09:02:32;;;;;;;;;;;;;;;9.43;nan;103297.69;5001908;28;19922;-85
2023/02/10 09:04:57;;;;;;;;;;;;;;;9.53;nan;103298.28;5003959;28;20394;-86
2023/02/10 09:07:22;;;;;;;;;;;;;;;9.66;nan;103284.28;5007753;28;20212;-85
2023/02/10 09:09:48;;;;;;;;;;;;;;;9.79;nan;103287.19;5001918;28;20552;-85
2023/02/10 09:12:14;;;;;;;;;;;;;;;9.78;nan;103292.72;5003769;28;19961;-85
2023/02/10 09:14:40;;;;;;;;;;;;;;;9.86;nan;103304.19;5002581;28;19967;-86
2023/02/10 09:17:07;;;;;;;;;;;;;;;9.88;nan;103299.50;5003082;28;19928;-87
2023/02/10 09:19:33;;;;;;;;;;;;;;;9.96;nan;103304.78;5000322;28;19991;-84
2023/02/10 09:21:59;;;;;;;;;;;;;;;10.07;nan;103311.56;4998045;28;20395;-84
2023/02/10 09:24:24;;;;;;;;;;;;;;;10.07;nan;103316.91;5001825;28;20382;-87
2023/02/10 09:26:49;;;;;;;;;;;;;;;10.04;nan;103311.06;5000551;28;20515;-86
2023/02/10 09:29:15;;;;;;;;;;;;;;;9.99;nan;103304.41;4997691;28;21368;-86
2023/02/10 09:31:41;;;;;;;;;;;;;;;9.98;nan;103317.97;4983927;28;19921;-88
2023/02/10 09:34:06;;;;;;;;;;;;;;;10.03;nan;103320.09;4996777;28;19983;-85
2023/02/10 09:36:31;;;;;;;;;;;;;;;10.10;nan;103318.38;5000524;28;19967;-84
2023/02/10 09:38:57;;;;;;;;;;;;;;;10.12;nan;103322.53;5001602;28;19922;-87
2023/02/10 09:41:35;;;;;;;;;;;;;;;10.24;nan;103326.47;4998869;28;20004;-88
2023/02/10 09:44:06;;;;;;;;;;;;;;;10.28;nan;103329.63;4995429;28;20045;-84
2023/02/10 09:46:50;;;;;;;;;;;;;;;10.23;nan;103342.72;4996006;28;20426;-84
2023/02/10 09:49:21;;;;;;;;;;;;;;;10.22;nan;103341.06;5003938;28;20430;-86
2023/02/10 09:51:53;;;;;;;;;;;;;;;10.29;nan;103339.31;5000367;28;20378;-84
2023/02/10 09:54:19;;;;;;;;;;;;;;;10.24;nan;103344.41;5002084;28;20490;-87
2023/02/10 09:56:45;;;;;;;;;;;;;;;10.25;nan;103335.34;5001694;28;19925;-85
2023/02/10 09:59:14;;;;;;;;;;;;;;;10.32;nan;103341.63;5003342;28;19921;-85
2023/02/10 10:01:45;;;;;;;;;;;;;;;10.35;nan;103325.19;4995190;28;19921;-86
2023/02/10 10:04:14;;;;;;;;;;;;;;;10.40;nan;103336.19;5012066;28;19943;-85
2023/02/10 10:06:42;;;;;;;;;;;;;;;10.39;nan;103347.91;5007633;28;19917;-85
2023/02/10 10:09:08;;;;;;;;;;;;;;;10.42;nan;103352.94;5007419;28;19921;-85
2023/02/10 10:11:41;;;;;;;;;;;;;;;10.48;nan;103356.72;5002643;28;19979;-90
2023/02/10 10:14:27;;;;;;;;;;;;;;;10.48;nan;103368.28;5011422;28;19925;-85
2023/02/10 10:17:03;;;;;;;;;;;;;;;10.46;nan;103361.44;5000818;28;20408;-86
2023/02/10 10:19:28;;;;;;;;;;;;;;;10.54;nan;103359.47;5004948;28;20390;-87
2023/02/10 10:22:05;;;;;;;;;;;;;;;10.57;nan;103355.59;5005835;28;19926;-85
2023/02/10 10:24:54;;;;;;;;;;;;;;;10.65;nan;103360.06;5009764;28;20407;-85
2023/02/10 10:27:31;;;;;;;;;;;;;;;10.77;nan;103366.59;4963446;28;20254;-85
2023/02/10 10:30:06;;;;;;;;;;;;;;;10.80;nan;103363.56;5006079;28;19921;-85
2023/02/10 10:32:31;;;;;;;;;;;;;;;10.84;nan;103362.16;5002129;28;20148;-85
2023/02/10 10:34:57;;;;;;;;;;;;;;;10.86;nan;103362.81;5005862;28;19937;-85
2023/02/10 10:37:24;;;;;;;;;;;;;;;10.87;nan;103372.53;5006117;28;20008;-86
2023/02/10 10:39:52;;;;;;;;;;;;;;;10.84;nan;103365.69;5004840;28;19921;-85
2023/02/10 10:42:23;;;;;;;;;;;;;;;10.90;nan;103372.97;4999753;28;20004;-85
2023/02/10 10:44:50;;;;;;;;;;;;;;;10.83;nan;103373.91;4997554;28;20425;-84
2023/02/10 10:47:18;;;;;;;;;;;;;;;10.82;nan;103361.53;5007154;28;19957;-84
2023/02/10 10:49:43;;;;;;;;;;;;;;;10.73;nan;103366.13;5019532;28;19917;-85
2023/02/10 10:52:25;;;;;;;;;;;;;;;10.70;nan;103361.16;5005833;28;19928;-85
2023/02/10 10:54:50;;;;;;;;;;;;;;;10.79;nan;103367.28;5007221;28;19964;-86
2023/02/10 10:57:16;;;;;;;;;;;;;;;10.80;nan;103372.44;5010709;28;20503;-85
2023/02/10 10:59:45;;;;;;;;;;;;;;;10.86;nan;103366.31;5002881;28;19925;-86
2023/02/10 11:02:18;;;;;;;;;;;;;;;10.87;nan;103361.78;5009057;28;19918;-85
2023/02/10 11:04:44;;;;;;;;;;;;;;;10.85;nan;103369.19;5002627;28;20450;-87
2023/02/10 11:07:30;;;;;;;;;;;;;;;10.86;nan;103357.44;5003390;28;19921;-84
2023/02/10 11:09:56;;;;;;;;;;;;;;;10.87;nan;103356.44;4999323;28;20720;-85
2023/02/10 11:12:25;;;;;;;;;;;;;;;10.85;nan;103361.16;5004499;28;19921;-88
2023/02/10 11:14:53;;;;;;;;;;;;;;;10.87;nan;103357.25;5002485;28;19925;-85
2023/02/10 11:17:37;;;;;;;;;;;;;;;10.94;nan;103362.69;5002115;28;20011;-85
2023/02/10 11:20:05;;;;;;;;;;;;;;;10.94;nan;103351.16;5005083;28;19921;-85
2023/02/10 11:22:31;;;;;;;;;;;;;;;10.90;nan;103359.56;5002791;28;19940;-86
2023/02/10 11:24:59;;;;;;;;;;;;;;;11.00;nan;103359.28;5002395;28;19925;-86
2023/02/10 11:27:25;;;;;;;;;;;;;;;10.94;nan;103357.34;4995306;28;19922;-85
2023/02/10 11:29:52;;;;;;;;;;;;;;;11.00;nan;103361.97;5001098;28;20055;-84
2023/02/10 11:32:29;;;;;;;;;;;;;;;11.04;nan;103363.25;5003114;28;19932;-85
2023/02/10 11:34:59;;;;;;;;;;;;;;;11.02;nan;103362.63;5000494;28;19925;-88
2023/02/10 11:37:27;;;;;;;;;;;;;;;10.94;nan;103351.97;5002947;28;19933;-87
2023/02/10 11:39:54;;;;;;;;;;;;;;;11.02;nan;103351.06;4999175;28;19925;-87
2023/02/10 11:42:22;;;;;;;;;;;;;;;11.09;nan;103344.75;5003963;28;19945;-85
2023/02/10 11:44:58;;;;;;;;;;;;;;;11.11;nan;103331.13;5002211;28;20023;-86
2023/02/10 11:47:25;;;;;;;;;;;;;;;11.14;nan;103345.03;4997763;28;19925;-87
2023/02/10 11:49:50;;;;;;;;;;;;;;;11.21;nan;103331.69;4998053;28;19932;-85
2023/02/10 11:52:18;;;;;;;;;;;;;;;11.26;nan;103339.97;4999353;28;19921;-88
2023/02/10 11:54:44;;;;;;;;;;;;;;;11.35;nan;103333.50;5002662;28;19933;-86
2023/02/10 12:00:14;;;;;;;;;;;;;;;11.50;nan;103333.44;4999911;28;20345;-86
2023/02/10 12:02:51;;;;;;;;;;;;;;;11.67;nan;103334.84;5001843;28;19917;-86
2023/02/10 12:05:17;;;;;;;;;;;;;;;11.87;nan;103331.53;4998521;28;19921;-86
2023/02/10 12:07:45;;;;;;;;;;;;;;;12.07;nan;103329.84;4995815;28;19960;-84
2023/02/10 12:10:29;;;;;;;;;;;;;;;12.12;nan;103319.34;4995910;28;20510;-83
2023/02/10 12:13:00;;;;;;;;;;;;;;;12.18;nan;103321.22;4995956;28;19926;-85
2023/02/10 12:15:34;;;;;;;;;;;;;;;12.20;nan;103316.47;5006835;28;19925;-87
2023/02/10 12:17:59;;;;;;;;;;;;;;;12.15;nan;103321.63;5005281;28;19921;-87
2023/02/10 12:20:31;;;;;;;;;;;;;;;11.98;nan;103309.50;5001880;28;19922;-85
2023/02/10 12:23:12;;;;;;;;;;;;;;;12.00;nan;103318.19;5004190;28;19980;-85
2023/02/10 12:25:37;;;;;;;;;;;;;;;11.90;nan;103320.41;4997216;28;20280;-88
2023/02/10 12:28:15;;;;;;;;;;;;;;;12.00;nan;103315.50;5009458;28;19918;-86
2023/02/10 12:31:09;;;;;;;;;;;;;;;12.21;nan;103315.47;5004863;28;20188;-87
2023/02/10 12:34:01;;;;;;;;;;;;;;;12.34;nan;103312.03;4989873;28;20399;-86
2023/02/10 12:36:46;;;;;;;;;;;;;;;12.50;nan;103305.50;4999348;28;19983;-85
2023/02/10 12:39:16;;;;;;;;;;;;;;;12.58;nan;103303.50;4973147;28;19953;-85
2023/02/10 12:41:41;;;;;;;;;;;;;;;12.73;nan;103305.19;5003841;28;19921;-85
2023/02/10 12:44:13;;;;;;;;;;;;;;;12.83;nan;103311.88;5005716;28;19943;-86
2023/02/10 12:46:52;;;;;;;;;;;;;;;13.06;nan;103303.47;5003807;28;19921;-85
2023/02/10 12:49:36;;;;;;;;;;;;;;;13.25;nan;103299.19;4998136;28;19928;-87
2023/02/10 12:52:15;;;;;;;;;;;;;;;13.44;nan;103295.72;4990531;28;20362;-87
2023/02/10 12:54:46;;;;;;;;;;;;;;;13.65;nan;103296.59;5003755;28;19925;-86
2023/02/10 12:57:19;;;;;;;;;;;;;;;13.83;nan;103286.84;4999295;28;19933;-86
2023/02/10 12:59:51;;;;;;;;;;;;;;;14.02;nan;103284.34;5000577;28;20283;-87
2023/02/10 13:02:20;;;;;;;;;;;;;;;14.08;nan;103278.94;4999356;28;19928;-88
2023/02/10 13:04:49;;;;;;;;;;;;;;;14.16;nan;103285.97;4995990;28;19921;-86
2023/02/10 13:07:14;;;;;;;;;;;;;;;14.19;nan;103272.91;5005369;28;19926;-89
2023/02/10 13:09:56;;;;;;;;;;;;;;;14.25;nan;103265.00;4999566;28;19929;-86
2023/02/10 13:12:25;;;;;;;;;;;;;;;14.35;nan;103262.69;5002422;28;19929;-85